sensor_id;sensor_type;location;lat;lon;timestamp;P1;durP1;ratioP1;P2;durP2;ratioP2
38859;SDS011;24609;48.316;16.174;2023-09-07T00:00:35;8.00;;;7.20;;
38859;SDS011;24609;48.316;16.174;2023-09-07T00:03:01;10.02;;;7.88;;
38859;SDS011;24609;48.316;16.174;2023-09-07T00:05:27;9.65;;;7.30;;
38859;SDS011;24609;48.316;16.174;2023-09-07T00:07:53;7.88;;;7.07;;
38859;SDS011;24609;48.316;16.174;2023-09-07T00:10:18;6.75;;;6.03;;
38859;SDS011;24609;48.316;16.174;2023-09-07T00:12:44;6.97;;;6.28;;
38859;SDS011;24609;48.316;16.174;2023-09-07T00:15:11;6.75;;;6.15;;
38859;SDS011;24609;48.316;16.174;2023-09-07T00:17:36;6.10;;;5.43;;
38859;SDS011;24609;48.316;16.174;2023-09-07T00:20:02;6.63;;;5.93;;
38859;SDS011;24609;48.316;16.174;2023-09-07T00:22:35;6.10;;;5.57;;
38859;SDS011;24609;48.316;16.174;2023-09-07T00:25:02;6.70;;;6.00;;
38859;SDS011;24609;48.316;16.174;2023-09-07T00:27:29;7.18;;;6.03;;
38859;SDS011;24609;48.316;16.174;2023-09-07T00:29:55;7.55;;;5.85;;
38859;SDS011;24609;48.316;16.174;2023-09-07T00:32:20;6.65;;;6.00;;
38859;SDS011;24609;48.316;16.174;2023-09-07T00:34:46;7.10;;;6.40;;
38859;SDS011;24609;48.316;16.174;2023-09-07T00:37:12;8.60;;;6.70;;
38859;SDS011;24609;48.316;16.174;2023-09-07T00:39:37;10.00;;;7.00;;
38859;SDS011;24609;48.316;16.174;2023-09-07T00:42:03;9.27;;;7.50;;
38859;SDS011;24609;48.316;16.174;2023-09-07T00:44:29;13.82;;;7.15;;
38859;SDS011;24609;48.316;16.174;2023-09-07T00:46:56;8.45;;;6.93;;
38859;SDS011;24609;48.316;16.174;2023-09-07T00:49:22;7.53;;;6.40;;
38859;SDS011;24609;48.316;16.174;2023-09-07T00:51:49;8.40;;;6.75;;
38859;SDS011;24609;48.316;16.174;2023-09-07T00:54:16;8.20;;;6.57;;
38859;SDS011;24609;48.316;16.174;2023-09-07T00:56:42;6.85;;;6.25;;
38859;SDS011;24609;48.316;16.174;2023-09-07T00:59:07;7.85;;;6.40;;
38859;SDS011;24609;48.316;16.174;2023-09-07T01:01:34;6.18;;;5.32;;
38859;SDS011;24609;48.316;16.174;2023-09-07T01:04:01;8.15;;;6.25;;
38859;SDS011;24609;48.316;16.174;2023-09-07T01:09:35;7.38;;;6.40;;
38859;SDS011;24609;48.316;16.174;2023-09-07T01:12:04;7.45;;;6.65;;
38859;SDS011;24609;48.316;16.174;2023-09-07T01:14:35;13.02;;;9.80;;
38859;SDS011;24609;48.316;16.174;2023-09-07T01:17:01;10.30;;;7.90;;
38859;SDS011;24609;48.316;16.174;2023-09-07T01:19:28;11.38;;;7.68;;
38859;SDS011;24609;48.316;16.174;2023-09-07T01:21:54;8.70;;;7.80;;
38859;SDS011;24609;48.316;16.174;2023-09-07T01:24:20;8.55;;;7.68;;
38859;SDS011;24609;48.316;16.174;2023-09-07T01:26:47;7.95;;;7.15;;
38859;SDS011;24609;48.316;16.174;2023-09-07T01:29:14;8.30;;;7.35;;
38859;SDS011;24609;48.316;16.174;2023-09-07T01:31:42;8.25;;;7.07;;
38859;SDS011;24609;48.316;16.174;2023-09-07T01:34:08;10.43;;;7.82;;
38859;SDS011;24609;48.316;16.174;2023-09-07T01:36:34;9.55;;;7.43;;
38859;SDS011;24609;48.316;16.174;2023-09-07T01:39:00;7.57;;;6.80;;
38859;SDS011;24609;48.316;16.174;2023-09-07T01:41:28;8.77;;;7.03;;
38859;SDS011;24609;48.316;16.174;2023-09-07T01:43:54;9.98;;;7.22;;
38859;SDS011;24609;48.316;16.174;2023-09-07T01:46:20;9.40;;;7.28;;
38859;SDS011;24609;48.316;16.174;2023-09-07T01:48:46;8.18;;;7.32;;
38859;SDS011;24609;48.316;16.174;2023-09-07T01:51:12;7.35;;;6.57;;
38859;SDS011;24609;48.316;16.174;2023-09-07T01:53:37;9.60;;;8.20;;
38859;SDS011;24609;48.316;16.174;2023-09-07T01:56:03;8.23;;;7.25;;
38859;SDS011;24609;48.316;16.174;2023-09-07T01:58:28;9.38;;;6.95;;
38859;SDS011;24609;48.316;16.174;2023-09-07T02:00:57;11.60;;;7.10;;
38859;SDS011;24609;48.316;16.174;2023-09-07T02:03:24;8.40;;;7.22;;
38859;SDS011;24609;48.316;16.174;2023-09-07T02:05:52;9.80;;;8.27;;
38859;SDS011;24609;48.316;16.174;2023-09-07T02:08:19;9.23;;;7.47;;
38859;SDS011;24609;48.316;16.174;2023-09-07T02:10:44;7.15;;;6.13;;
38859;SDS011;24609;48.316;16.174;2023-09-07T02:13:10;6.45;;;5.85;;
38859;SDS011;24609;48.316;16.174;2023-09-07T02:15:39;8.27;;;6.57;;
38859;SDS011;24609;48.316;16.174;2023-09-07T02:18:05;6.68;;;5.93;;
38859;SDS011;24609;48.316;16.174;2023-09-07T02:20:31;7.45;;;6.50;;
38859;SDS011;24609;48.316;16.174;2023-09-07T02:22:57;9.32;;;7.13;;
38859;SDS011;24609;48.316;16.174;2023-09-07T02:25:23;7.80;;;6.75;;
38859;SDS011;24609;48.316;16.174;2023-09-07T02:27:49;7.43;;;6.72;;
38859;SDS011;24609;48.316;16.174;2023-09-07T02:30:15;8.77;;;7.88;;
38859;SDS011;24609;48.316;16.174;2023-09-07T02:32:42;8.40;;;7.13;;
38859;SDS011;24609;48.316;16.174;2023-09-07T02:35:07;11.35;;;7.93;;
38859;SDS011;24609;48.316;16.174;2023-09-07T02:37:35;7.78;;;6.45;;
38859;SDS011;24609;48.316;16.174;2023-09-07T02:40:00;8.07;;;7.28;;
38859;SDS011;24609;48.316;16.174;2023-09-07T02:42:26;6.55;;;5.85;;
38859;SDS011;24609;48.316;16.174;2023-09-07T02:44:52;9.07;;;7.05;;
38859;SDS011;24609;48.316;16.174;2023-09-07T02:47:18;9.48;;;8.35;;
38859;SDS011;24609;48.316;16.174;2023-09-07T02:49:44;9.60;;;8.52;;
38859;SDS011;24609;48.316;16.174;2023-09-07T02:52:10;8.73;;;7.82;;
38859;SDS011;24609;48.316;16.174;2023-09-07T02:54:35;8.63;;;7.57;;
38859;SDS011;24609;48.316;16.174;2023-09-07T02:57:01;9.98;;;9.02;;
38859;SDS011;24609;48.316;16.174;2023-09-07T02:59:27;10.63;;;8.55;;
38859;SDS011;24609;48.316;16.174;2023-09-07T03:01:53;10.23;;;9.23;;
38859;SDS011;24609;48.316;16.174;2023-09-07T03:04:18;9.88;;;8.88;;
38859;SDS011;24609;48.316;16.174;2023-09-07T03:06:44;9.88;;;8.93;;
38859;SDS011;24609;48.316;16.174;2023-09-07T03:09:09;10.25;;;8.23;;
38859;SDS011;24609;48.316;16.174;2023-09-07T03:11:35;9.75;;;8.75;;
38859;SDS011;24609;48.316;16.174;2023-09-07T03:14:01;10.63;;;9.52;;
38859;SDS011;24609;48.316;16.174;2023-09-07T03:16:27;10.45;;;8.95;;
38859;SDS011;24609;48.316;16.174;2023-09-07T03:18:52;10.95;;;8.77;;
38859;SDS011;24609;48.316;16.174;2023-09-07T03:21:18;11.57;;;9.25;;
38859;SDS011;24609;48.316;16.174;2023-09-07T03:23:44;10.18;;;8.93;;
38859;SDS011;24609;48.316;16.174;2023-09-07T03:26:10;12.10;;;9.52;;
38859;SDS011;24609;48.316;16.174;2023-09-07T03:28:35;9.93;;;8.57;;
38859;SDS011;24609;48.316;16.174;2023-09-07T03:31:01;8.65;;;7.75;;
38859;SDS011;24609;48.316;16.174;2023-09-07T03:33:27;8.88;;;7.88;;
38859;SDS011;24609;48.316;16.174;2023-09-07T03:35:53;14.02;;;10.13;;
38859;SDS011;24609;48.316;16.174;2023-09-07T03:38:23;8.80;;;7.88;;
38859;SDS011;24609;48.316;16.174;2023-09-07T03:40:49;11.70;;;10.38;;
38859;SDS011;24609;48.316;16.174;2023-09-07T03:43:15;11.07;;;8.55;;
38859;SDS011;24609;48.316;16.174;2023-09-07T03:45:41;9.20;;;8.18;;
38859;SDS011;24609;48.316;16.174;2023-09-07T03:48:07;10.00;;;8.80;;
38859;SDS011;24609;48.316;16.174;2023-09-07T03:50:34;11.77;;;9.30;;
38859;SDS011;24609;48.316;16.174;2023-09-07T03:53:00;12.68;;;10.95;;
38859;SDS011;24609;48.316;16.174;2023-09-07T03:55:26;11.85;;;9.50;;
38859;SDS011;24609;48.316;16.174;2023-09-07T03:57:52;10.52;;;8.00;;
38859;SDS011;24609;48.316;16.174;2023-09-07T04:00:17;10.55;;;8.52;;
38859;SDS011;24609;48.316;16.174;2023-09-07T04:02:43;11.50;;;7.82;;
38859;SDS011;24609;48.316;16.174;2023-09-07T04:05:09;10.10;;;8.43;;
38859;SDS011;24609;48.316;16.174;2023-09-07T04:07:38;8.98;;;8.07;;
38859;SDS011;24609;48.316;16.174;2023-09-07T04:10:04;10.80;;;8.50;;
38859;SDS011;24609;48.316;16.174;2023-09-07T04:12:30;9.55;;;8.55;;
38859;SDS011;24609;48.316;16.174;2023-09-07T04:14:56;9.35;;;8.45;;
38859;SDS011;24609;48.316;16.174;2023-09-07T04:17:22;9.55;;;7.78;;
38859;SDS011;24609;48.316;16.174;2023-09-07T04:19:47;11.07;;;8.38;;
38859;SDS011;24609;48.316;16.174;2023-09-07T04:22:13;9.80;;;8.82;;
38859;SDS011;24609;48.316;16.174;2023-09-07T04:24:39;11.90;;;8.38;;
38859;SDS011;24609;48.316;16.174;2023-09-07T04:27:04;10.98;;;9.75;;
38859;SDS011;24609;48.316;16.174;2023-09-07T04:29:30;8.93;;;7.95;;
38859;SDS011;24609;48.316;16.174;2023-09-07T04:31:56;10.13;;;9.07;;
38859;SDS011;24609;48.316;16.174;2023-09-07T04:34:22;8.73;;;7.82;;
38859;SDS011;24609;48.316;16.174;2023-09-07T04:36:48;9.32;;;8.40;;
38859;SDS011;24609;48.316;16.174;2023-09-07T04:39:13;8.90;;;8.00;;
38859;SDS011;24609;48.316;16.174;2023-09-07T04:41:40;9.30;;;7.93;;
38859;SDS011;24609;48.316;16.174;2023-09-07T04:44:05;8.65;;;7.85;;
38859;SDS011;24609;48.316;16.174;2023-09-07T04:46:31;9.13;;;7.95;;
38859;SDS011;24609;48.316;16.174;2023-09-07T04:48:57;10.13;;;8.13;;
38859;SDS011;24609;48.316;16.174;2023-09-07T04:51:23;9.32;;;8.15;;
38859;SDS011;24609;48.316;16.174;2023-09-07T04:53:50;9.20;;;8.18;;
38859;SDS011;24609;48.316;16.174;2023-09-07T04:56:16;9.95;;;8.65;;
38859;SDS011;24609;48.316;16.174;2023-09-07T04:58:42;9.82;;;8.82;;
38859;SDS011;24609;48.316;16.174;2023-09-07T05:01:11;11.82;;;8.32;;
38859;SDS011;24609;48.316;16.174;2023-09-07T05:03:38;8.15;;;7.20;;
38859;SDS011;24609;48.316;16.174;2023-09-07T05:06:05;10.30;;;7.38;;
38859;SDS011;24609;48.316;16.174;2023-09-07T05:08:31;10.10;;;7.85;;
38859;SDS011;24609;48.316;16.174;2023-09-07T05:10:57;10.15;;;7.55;;
38859;SDS011;24609;48.316;16.174;2023-09-07T05:13:24;8.65;;;7.07;;
38859;SDS011;24609;48.316;16.174;2023-09-07T05:15:51;8.07;;;7.00;;
38859;SDS011;24609;48.316;16.174;2023-09-07T05:18:18;10.82;;;7.80;;
38859;SDS011;24609;48.316;16.174;2023-09-07T05:20:44;8.65;;;7.50;;
38859;SDS011;24609;48.316;16.174;2023-09-07T05:23:13;10.68;;;8.07;;
38859;SDS011;24609;48.316;16.174;2023-09-07T05:25:51;12.88;;;7.82;;
38859;SDS011;24609;48.316;16.174;2023-09-07T05:28:18;15.18;;;7.88;;
38859;SDS011;24609;48.316;16.174;2023-09-07T05:30:44;10.05;;;8.75;;
38859;SDS011;24609;48.316;16.174;2023-09-07T05:33:11;10.73;;;7.70;;
38859;SDS011;24609;48.316;16.174;2023-09-07T05:35:39;13.00;;;7.88;;
38859;SDS011;24609;48.316;16.174;2023-09-07T05:38:06;11.48;;;7.47;;
38859;SDS011;24609;48.316;16.174;2023-09-07T05:40:39;12.30;;;8.50;;
38859;SDS011;24609;48.316;16.174;2023-09-07T05:43:06;8.50;;;7.60;;
38859;SDS011;24609;48.316;16.174;2023-09-07T05:45:39;11.70;;;7.53;;
38859;SDS011;24609;48.316;16.174;2023-09-07T05:48:06;10.32;;;8.43;;
38859;SDS011;24609;48.316;16.174;2023-09-07T05:50:36;10.55;;;7.72;;
38859;SDS011;24609;48.316;16.174;2023-09-07T05:53:03;10.43;;;7.32;;
38859;SDS011;24609;48.316;16.174;2023-09-07T05:55:30;8.40;;;7.50;;
38859;SDS011;24609;48.316;16.174;2023-09-07T05:57:56;8.98;;;6.70;;
38859;SDS011;24609;48.316;16.174;2023-09-07T06:00:22;8.55;;;6.95;;
38859;SDS011;24609;48.316;16.174;2023-09-07T06:02:48;10.05;;;6.95;;
38859;SDS011;24609;48.316;16.174;2023-09-07T06:05:14;7.65;;;6.07;;
38859;SDS011;24609;48.316;16.174;2023-09-07T06:07:41;8.45;;;7.20;;
38859;SDS011;24609;48.316;16.174;2023-09-07T06:10:08;10.90;;;6.75;;
38859;SDS011;24609;48.316;16.174;2023-09-07T06:12:34;6.32;;;4.88;;
38859;SDS011;24609;48.316;16.174;2023-09-07T06:15:00;7.90;;;6.65;;
38859;SDS011;24609;48.316;16.174;2023-09-07T06:17:27;6.35;;;5.43;;
38859;SDS011;24609;48.316;16.174;2023-09-07T06:19:53;5.50;;;4.63;;
38859;SDS011;24609;48.316;16.174;2023-09-07T06:22:19;5.35;;;4.85;;
38859;SDS011;24609;48.316;16.174;2023-09-07T06:24:45;7.43;;;4.95;;
38859;SDS011;24609;48.316;16.174;2023-09-07T06:27:11;5.03;;;4.18;;
38859;SDS011;24609;48.316;16.174;2023-09-07T06:29:36;6.03;;;4.90;;
38859;SDS011;24609;48.316;16.174;2023-09-07T06:32:02;5.07;;;4.57;;
38859;SDS011;24609;48.316;16.174;2023-09-07T06:34:28;5.38;;;4.10;;
38859;SDS011;24609;48.316;16.174;2023-09-07T06:36:54;6.20;;;4.07;;
38859;SDS011;24609;48.316;16.174;2023-09-07T06:39:19;4.32;;;3.92;;
38859;SDS011;24609;48.316;16.174;2023-09-07T06:41:45;4.00;;;3.47;;
38859;SDS011;24609;48.316;16.174;2023-09-07T06:44:12;4.38;;;3.40;;
38859;SDS011;24609;48.316;16.174;2023-09-07T06:46:38;3.85;;;3.45;;
38859;SDS011;24609;48.316;16.174;2023-09-07T06:49:03;5.05;;;3.70;;
38859;SDS011;24609;48.316;16.174;2023-09-07T06:51:30;4.05;;;3.40;;
38859;SDS011;24609;48.316;16.174;2023-09-07T06:53:56;5.25;;;3.33;;
38859;SDS011;24609;48.316;16.174;2023-09-07T06:56:22;5.35;;;3.65;;
38859;SDS011;24609;48.316;16.174;2023-09-07T06:58:48;6.93;;;3.92;;
38859;SDS011;24609;48.316;16.174;2023-09-07T07:01:14;4.72;;;3.55;;
38859;SDS011;24609;48.316;16.174;2023-09-07T07:03:40;4.45;;;3.75;;
38859;SDS011;24609;48.316;16.174;2023-09-07T07:06:06;3.83;;;3.35;;
38859;SDS011;24609;48.316;16.174;2023-09-07T07:08:32;9.48;;;4.10;;
38859;SDS011;24609;48.316;16.174;2023-09-07T07:10:58;4.38;;;3.60;;
38859;SDS011;24609;48.316;16.174;2023-09-07T07:13:23;3.72;;;3.30;;
38859;SDS011;24609;48.316;16.174;2023-09-07T07:15:49;5.30;;;3.92;;
38859;SDS011;24609;48.316;16.174;2023-09-07T07:18:15;6.55;;;3.67;;
38859;SDS011;24609;48.316;16.174;2023-09-07T07:20:41;5.07;;;3.67;;
38859;SDS011;24609;48.316;16.174;2023-09-07T07:23:08;5.60;;;3.40;;
38859;SDS011;24609;48.316;16.174;2023-09-07T07:25:34;5.75;;;3.50;;
38859;SDS011;24609;48.316;16.174;2023-09-07T07:28:02;4.80;;;3.80;;
38859;SDS011;24609;48.316;16.174;2023-09-07T07:30:35;4.75;;;3.63;;
38859;SDS011;24609;48.316;16.174;2023-09-07T07:33:02;4.40;;;3.63;;
38859;SDS011;24609;48.316;16.174;2023-09-07T07:35:29;6.50;;;3.80;;
38859;SDS011;24609;48.316;16.174;2023-09-07T07:37:58;9.23;;;3.60;;
38859;SDS011;24609;48.316;16.174;2023-09-07T07:40:24;4.07;;;3.47;;
38859;SDS011;24609;48.316;16.174;2023-09-07T07:42:51;4.72;;;3.55;;
38859;SDS011;24609;48.316;16.174;2023-09-07T07:45:17;4.70;;;3.53;;
38859;SDS011;24609;48.316;16.174;2023-09-07T07:47:45;7.13;;;3.70;;
38859;SDS011;24609;48.316;16.174;2023-09-07T07:50:11;4.28;;;3.25;;
38859;SDS011;24609;48.316;16.174;2023-09-07T07:52:36;6.13;;;4.05;;
38859;SDS011;24609;48.316;16.174;2023-09-07T07:55:02;4.70;;;3.95;;
38859;SDS011;24609;48.316;16.174;2023-09-07T07:57:28;4.45;;;3.90;;
38859;SDS011;24609;48.316;16.174;2023-09-07T07:59:55;6.10;;;3.67;;
38859;SDS011;24609;48.316;16.174;2023-09-07T08:02:21;8.10;;;3.75;;
38859;SDS011;24609;48.316;16.174;2023-09-07T08:04:47;5.93;;;4.10;;
38859;SDS011;24609;48.316;16.174;2023-09-07T08:07:12;6.70;;;3.90;;
38859;SDS011;24609;48.316;16.174;2023-09-07T08:09:38;5.97;;;4.28;;
38859;SDS011;24609;48.316;16.174;2023-09-07T08:12:04;6.85;;;4.15;;
38859;SDS011;24609;48.316;16.174;2023-09-07T08:14:30;4.68;;;3.55;;
38859;SDS011;24609;48.316;16.174;2023-09-07T08:16:57;7.10;;;3.70;;
38859;SDS011;24609;48.316;16.174;2023-09-07T08:19:23;7.28;;;4.15;;
38859;SDS011;24609;48.316;16.174;2023-09-07T08:21:49;3.97;;;3.50;;
38859;SDS011;24609;48.316;16.174;2023-09-07T08:24:16;6.93;;;3.92;;
38859;SDS011;24609;48.316;16.174;2023-09-07T08:26:41;3.80;;;3.30;;
38859;SDS011;24609;48.316;16.174;2023-09-07T08:29:08;5.35;;;3.13;;
38859;SDS011;24609;48.316;16.174;2023-09-07T08:31:34;7.70;;;3.55;;
38859;SDS011;24609;48.316;16.174;2023-09-07T08:34:00;7.15;;;3.63;;
38859;SDS011;24609;48.316;16.174;2023-09-07T08:36:30;5.03;;;3.90;;
38859;SDS011;24609;48.316;16.174;2023-09-07T08:38:59;3.95;;;2.83;;
38859;SDS011;24609;48.316;16.174;2023-09-07T08:41:26;3.92;;;3.00;;
38859;SDS011;24609;48.316;16.174;2023-09-07T08:43:53;5.53;;;3.78;;
38859;SDS011;24609;48.316;16.174;2023-09-07T08:46:20;12.00;;;4.13;;
38859;SDS011;24609;48.316;16.174;2023-09-07T08:48:47;4.93;;;3.60;;
38859;SDS011;24609;48.316;16.174;2023-09-07T08:51:15;5.85;;;3.00;;
38859;SDS011;24609;48.316;16.174;2023-09-07T08:53:42;5.47;;;3.78;;
38859;SDS011;24609;48.316;16.174;2023-09-07T08:56:11;7.72;;;3.72;;
38859;SDS011;24609;48.316;16.174;2023-09-07T08:58:37;3.60;;;3.00;;
38859;SDS011;24609;48.316;16.174;2023-09-07T09:01:05;6.72;;;3.85;;
38859;SDS011;24609;48.316;16.174;2023-09-07T09:03:31;4.47;;;3.60;;
38859;SDS011;24609;48.316;16.174;2023-09-07T09:05:56;6.70;;;3.90;;
38859;SDS011;24609;48.316;16.174;2023-09-07T09:08:22;3.78;;;3.38;;
38859;SDS011;24609;48.316;16.174;2023-09-07T09:10:59;6.43;;;3.70;;
38859;SDS011;24609;48.316;16.174;2023-09-07T09:13:29;8.63;;;3.50;;
38859;SDS011;24609;48.316;16.174;2023-09-07T09:15:56;6.00;;;3.65;;
38859;SDS011;24609;48.316;16.174;2023-09-07T09:18:25;5.40;;;4.20;;
38859;SDS011;24609;48.316;16.174;2023-09-07T09:20:52;10.00;;;4.25;;
38859;SDS011;24609;48.316;16.174;2023-09-07T09:23:24;5.65;;;4.05;;
38859;SDS011;24609;48.316;16.174;2023-09-07T09:25:59;6.75;;;3.83;;
38859;SDS011;24609;48.316;16.174;2023-09-07T09:28:26;7.28;;;4.15;;
38859;SDS011;24609;48.316;16.174;2023-09-07T09:30:56;6.53;;;4.40;;
38859;SDS011;24609;48.316;16.174;2023-09-07T09:33:23;4.80;;;3.83;;
38859;SDS011;24609;48.316;16.174;2023-09-07T09:35:48;7.57;;;4.20;;
38859;SDS011;24609;48.316;16.174;2023-09-07T09:38:15;8.80;;;4.20;;
38859;SDS011;24609;48.316;16.174;2023-09-07T09:40:42;11.02;;;4.45;;
38859;SDS011;24609;48.316;16.174;2023-09-07T09:43:07;6.88;;;4.35;;
38859;SDS011;24609;48.316;16.174;2023-09-07T09:45:33;5.18;;;4.68;;
38859;SDS011;24609;48.316;16.174;2023-09-07T09:48:00;7.22;;;4.43;;
38859;SDS011;24609;48.316;16.174;2023-09-07T09:50:28;5.65;;;4.78;;
38859;SDS011;24609;48.316;16.174;2023-09-07T09:52:54;6.47;;;4.10;;
38859;SDS011;24609;48.316;16.174;2023-09-07T09:55:21;5.07;;;3.83;;
38859;SDS011;24609;48.316;16.174;2023-09-07T09:57:47;5.50;;;4.10;;
38859;SDS011;24609;48.316;16.174;2023-09-07T10:00:15;5.30;;;3.92;;
38859;SDS011;24609;48.316;16.174;2023-09-07T10:02:45;7.45;;;4.20;;
38859;SDS011;24609;48.316;16.174;2023-09-07T10:05:36;5.80;;;3.90;;
38859;SDS011;24609;48.316;16.174;2023-09-07T10:08:07;6.43;;;4.15;;
38859;SDS011;24609;48.316;16.174;2023-09-07T10:10:35;10.13;;;4.82;;
38859;SDS011;24609;48.316;16.174;2023-09-07T10:13:02;5.43;;;3.85;;
38859;SDS011;24609;48.316;16.174;2023-09-07T10:15:29;5.00;;;4.50;;
38859;SDS011;24609;48.316;16.174;2023-09-07T10:20:50;7.75;;;4.53;;
38859;SDS011;24609;48.316;16.174;2023-09-07T10:23:19;5.40;;;4.10;;
38859;SDS011;24609;48.316;16.174;2023-09-07T10:25:51;7.57;;;4.00;;
38859;SDS011;24609;48.316;16.174;2023-09-07T10:28:19;6.70;;;3.92;;
38859;SDS011;24609;48.316;16.174;2023-09-07T10:30:47;4.82;;;3.95;;
38859;SDS011;24609;48.316;16.174;2023-09-07T10:33:29;7.43;;;4.03;;
38859;SDS011;24609;48.316;16.174;2023-09-07T10:35:55;5.93;;;4.10;;
38859;SDS011;24609;48.316;16.174;2023-09-07T10:38:22;4.68;;;3.50;;
38859;SDS011;24609;48.316;16.174;2023-09-07T10:40:48;5.32;;;3.63;;
38859;SDS011;24609;48.316;16.174;2023-09-07T10:43:19;7.40;;;3.78;;
38859;SDS011;24609;48.316;16.174;2023-09-07T10:45:45;6.68;;;3.90;;
38859;SDS011;24609;48.316;16.174;2023-09-07T10:48:11;9.88;;;4.55;;
38859;SDS011;24609;48.316;16.174;2023-09-07T10:50:44;8.23;;;3.90;;
38859;SDS011;24609;48.316;16.174;2023-09-07T10:53:11;7.03;;;3.80;;
38859;SDS011;24609;48.316;16.174;2023-09-07T10:55:38;4.38;;;3.25;;
38859;SDS011;24609;48.316;16.174;2023-09-07T10:58:05;5.60;;;3.58;;
38859;SDS011;24609;48.316;16.174;2023-09-07T11:00:31;3.95;;;3.45;;
38859;SDS011;24609;48.316;16.174;2023-09-07T11:02:57;4.72;;;3.40;;
38859;SDS011;24609;48.316;16.174;2023-09-07T11:05:23;4.50;;;3.30;;
38859;SDS011;24609;48.316;16.174;2023-09-07T11:07:49;5.03;;;3.55;;
38859;SDS011;24609;48.316;16.174;2023-09-07T11:10:15;5.13;;;3.85;;
38859;SDS011;24609;48.316;16.174;2023-09-07T11:12:41;4.68;;;2.92;;
38859;SDS011;24609;48.316;16.174;2023-09-07T11:15:09;6.25;;;3.50;;
38859;SDS011;24609;48.316;16.174;2023-09-07T11:17:38;3.13;;;2.80;;
38859;SDS011;24609;48.316;16.174;2023-09-07T11:20:05;5.13;;;3.33;;
38859;SDS011;24609;48.316;16.174;2023-09-07T11:22:32;7.82;;;3.25;;
38859;SDS011;24609;48.316;16.174;2023-09-07T11:25:01;4.05;;;3.00;;
38859;SDS011;24609;48.316;16.174;2023-09-07T11:27:29;5.93;;;3.15;;
38859;SDS011;24609;48.316;16.174;2023-09-07T11:29:55;3.38;;;3.08;;
38859;SDS011;24609;48.316;16.174;2023-09-07T11:32:22;5.60;;;2.80;;
38859;SDS011;24609;48.316;16.174;2023-09-07T11:34:49;3.40;;;2.93;;
38859;SDS011;24609;48.316;16.174;2023-09-07T11:37:24;4.97;;;2.77;;
38859;SDS011;24609;48.316;16.174;2023-09-07T11:39:50;3.97;;;2.75;;
38859;SDS011;24609;48.316;16.174;2023-09-07T11:42:16;6.93;;;2.70;;
38859;SDS011;24609;48.316;16.174;2023-09-07T11:44:42;9.85;;;3.17;;
38859;SDS011;24609;48.316;16.174;2023-09-07T11:47:08;7.80;;;2.75;;
38859;SDS011;24609;48.316;16.174;2023-09-07T11:49:34;4.57;;;3.03;;
38859;SDS011;24609;48.316;16.174;2023-09-07T11:51:59;5.10;;;2.92;;
38859;SDS011;24609;48.316;16.174;2023-09-07T11:54:25;5.97;;;3.10;;
38859;SDS011;24609;48.316;16.174;2023-09-07T11:56:52;3.63;;;2.88;;
38859;SDS011;24609;48.316;16.174;2023-09-07T11:59:18;4.88;;;3.22;;
38859;SDS011;24609;48.316;16.174;2023-09-07T12:01:44;3.53;;;3.00;;
38859;SDS011;24609;48.316;16.174;2023-09-07T12:04:09;4.68;;;3.00;;
38859;SDS011;24609;48.316;16.174;2023-09-07T12:06:35;5.18;;;2.78;;
38859;SDS011;24609;48.316;16.174;2023-09-07T12:09:02;3.50;;;3.20;;
38859;SDS011;24609;48.316;16.174;2023-09-07T12:13:56;5.53;;;2.78;;
38859;SDS011;24609;48.316;16.174;2023-09-07T12:16:22;4.32;;;2.95;;
38859;SDS011;24609;48.316;16.174;2023-09-07T12:18:47;5.72;;;3.10;;
38859;SDS011;24609;48.316;16.174;2023-09-07T12:21:13;5.55;;;3.05;;
38859;SDS011;24609;48.316;16.174;2023-09-07T12:23:39;4.00;;;2.78;;
38859;SDS011;24609;48.316;16.174;2023-09-07T12:26:05;2.70;;;2.50;;
38859;SDS011;24609;48.316;16.174;2023-09-07T12:28:31;4.35;;;2.60;;
38859;SDS011;24609;48.316;16.174;2023-09-07T12:30:57;5.97;;;2.65;;
38859;SDS011;24609;48.316;16.174;2023-09-07T12:33:23;4.78;;;2.58;;
38859;SDS011;24609;48.316;16.174;2023-09-07T12:35:49;3.53;;;2.65;;
38859;SDS011;24609;48.316;16.174;2023-09-07T12:38:15;4.70;;;2.78;;
38859;SDS011;24609;48.316;16.174;2023-09-07T12:40:43;4.30;;;2.65;;
38859;SDS011;24609;48.316;16.174;2023-09-07T12:43:09;3.00;;;2.50;;
38859;SDS011;24609;48.316;16.174;2023-09-07T12:45:35;6.72;;;2.95;;
38859;SDS011;24609;48.316;16.174;2023-09-07T12:48:01;3.22;;;2.92;;
38859;SDS011;24609;48.316;16.174;2023-09-07T12:50:27;4.35;;;2.50;;
38859;SDS011;24609;48.316;16.174;2023-09-07T12:52:53;3.35;;;2.78;;
38859;SDS011;24609;48.316;16.174;2023-09-07T12:55:19;4.47;;;3.03;;
38859;SDS011;24609;48.316;16.174;2023-09-07T12:57:45;3.72;;;2.83;;
38859;SDS011;24609;48.316;16.174;2023-09-07T13:00:11;4.80;;;2.90;;
38859;SDS011;24609;48.316;16.174;2023-09-07T13:02:38;3.08;;;2.78;;
38859;SDS011;24609;48.316;16.174;2023-09-07T13:05:03;5.35;;;3.10;;
38859;SDS011;24609;48.316;16.174;2023-09-07T13:07:30;4.03;;;2.78;;
38859;SDS011;24609;48.316;16.174;2023-09-07T13:09:57;4.65;;;2.92;;
38859;SDS011;24609;48.316;16.174;2023-09-07T13:12:23;4.50;;;2.92;;
38859;SDS011;24609;48.316;16.174;2023-09-07T13:14:49;4.85;;;2.90;;
38859;SDS011;24609;48.316;16.174;2023-09-07T13:17:14;4.63;;;2.70;;
38859;SDS011;24609;48.316;16.174;2023-09-07T13:19:40;3.55;;;2.70;;
38859;SDS011;24609;48.316;16.174;2023-09-07T13:22:07;5.13;;;3.10;;
38859;SDS011;24609;48.316;16.174;2023-09-07T13:24:33;5.78;;;3.10;;
38859;SDS011;24609;48.316;16.174;2023-09-07T13:26:59;3.65;;;3.17;;
38859;SDS011;24609;48.316;16.174;2023-09-07T13:29:24;4.78;;;2.85;;
38859;SDS011;24609;48.316;16.174;2023-09-07T13:31:51;4.88;;;2.95;;
38859;SDS011;24609;48.316;16.174;2023-09-07T13:34:18;6.13;;;3.13;;
38859;SDS011;24609;48.316;16.174;2023-09-07T13:36:46;3.33;;;2.92;;
38859;SDS011;24609;48.316;16.174;2023-09-07T13:39:11;3.08;;;2.78;;
38859;SDS011;24609;48.316;16.174;2023-09-07T13:41:37;3.15;;;2.75;;
38859;SDS011;24609;48.316;16.174;2023-09-07T13:44:03;4.50;;;3.08;;
38859;SDS011;24609;48.316;16.174;2023-09-07T13:46:29;5.55;;;3.08;;
38859;SDS011;24609;48.316;16.174;2023-09-07T13:48:54;5.13;;;2.70;;
38859;SDS011;24609;48.316;16.174;2023-09-07T13:51:20;3.30;;;2.72;;
38859;SDS011;24609;48.316;16.174;2023-09-07T13:53:46;4.82;;;2.78;;
38859;SDS011;24609;48.316;16.174;2023-09-07T13:56:11;5.60;;;2.83;;
38859;SDS011;24609;48.316;16.174;2023-09-07T13:58:37;4.15;;;3.00;;
38859;SDS011;24609;48.316;16.174;2023-09-07T14:01:03;3.72;;;2.97;;
38859;SDS011;24609;48.316;16.174;2023-09-07T14:03:28;5.90;;;3.17;;
38859;SDS011;24609;48.316;16.174;2023-09-07T14:05:54;5.22;;;3.17;;
38859;SDS011;24609;48.316;16.174;2023-09-07T14:08:21;6.55;;;3.40;;
38859;SDS011;24609;48.316;16.174;2023-09-07T14:10:49;6.13;;;3.30;;
38859;SDS011;24609;48.316;16.174;2023-09-07T14:13:17;9.10;;;3.30;;
38859;SDS011;24609;48.316;16.174;2023-09-07T14:15:43;3.97;;;3.13;;
38859;SDS011;24609;48.316;16.174;2023-09-07T14:18:09;6.28;;;3.13;;
38859;SDS011;24609;48.316;16.174;2023-09-07T14:20:35;5.53;;;3.30;;
38859;SDS011;24609;48.316;16.174;2023-09-07T14:23:01;3.75;;;2.95;;
38859;SDS011;24609;48.316;16.174;2023-09-07T14:25:27;4.65;;;3.30;;
38859;SDS011;24609;48.316;16.174;2023-09-07T14:27:52;6.05;;;2.92;;
38859;SDS011;24609;48.316;16.174;2023-09-07T14:30:18;7.88;;;3.78;;
38859;SDS011;24609;48.316;16.174;2023-09-07T14:32:44;4.43;;;3.17;;
38859;SDS011;24609;48.316;16.174;2023-09-07T14:35:14;4.43;;;3.30;;
38859;SDS011;24609;48.316;16.174;2023-09-07T14:37:40;5.25;;;3.63;;